sensor_id;sensor_type;location;lat;lon;timestamp;temperature;humidity
53599;DHT22;39485;45.702;11.364;2023-06-14T00:00:18;18.10;99.90
53599;DHT22;39485;45.702;11.364;2023-06-14T00:02:44;18.10;99.90
53599;DHT22;39485;45.702;11.364;2023-06-14T00:05:09;18.00;99.90
53599;DHT22;39485;45.702;11.364;2023-06-14T00:07:39;18.00;99.90
53599;DHT22;39485;45.702;11.364;2023-06-14T00:10:09;18.00;99.90
53599;DHT22;39485;45.702;11.364;2023-06-14T00:12:35;17.90;99.90
53599;DHT22;39485;45.702;11.364;2023-06-14T00:15:02;17.90;99.90
53599;DHT22;39485;45.702;11.364;2023-06-14T00:17:28;17.90;99.90
53599;DHT22;39485;45.702;11.364;2023-06-14T00:20:00;17.90;99.90
53599;DHT22;39485;45.702;11.364;2023-06-14T00:22:26;17.80;99.90
53599;DHT22;39485;45.702;11.364;2023-06-14T00:24:54;17.80;99.90
53599;DHT22;39485;45.702;11.364;2023-06-14T00:27:19;17.80;99.90
53599;DHT22;39485;45.702;11.364;2023-06-14T00:29:45;17.70;99.90
53599;DHT22;39485;45.702;11.364;2023-06-14T00:32:11;17.70;99.90
53599;DHT22;39485;45.702;11.364;2023-06-14T00:34:36;17.70;99.90
53599;DHT22;39485;45.702;11.364;2023-06-14T00:37:02;17.70;99.90
53599;DHT22;39485;45.702;11.364;2023-06-14T00:39:28;17.70;99.90
53599;DHT22;39485;45.702;11.364;2023-06-14T00:41:53;17.70;99.90
53599;DHT22;39485;45.702;11.364;2023-06-14T00:44:19;17.80;99.90
53599;DHT22;39485;45.702;11.364;2023-06-14T00:46:48;17.70;99.90
53599;DHT22;39485;45.702;11.364;2023-06-14T00:49:18;17.70;99.90
53599;DHT22;39485;45.702;11.364;2023-06-14T00:51:45;17.80;99.90
53599;DHT22;39485;45.702;11.364;2023-06-14T00:54:11;17.70;99.90
53599;DHT22;39485;45.702;11.364;2023-06-14T00:56:37;17.70;99.90
53599;DHT22;39485;45.702;11.364;2023-06-14T00:59:03;17.70;99.90
53599;DHT22;39485;45.702;11.364;2023-06-14T01:01:30;17.70;99.90
53599;DHT22;39485;45.702;11.364;2023-06-14T01:03:58;17.70;99.90
53599;DHT22;39485;45.702;11.364;2023-06-14T01:09:18;17.70;99.90
53599;DHT22;39485;45.702;11.364;2023-06-14T01:12:11;17.70;99.90
53599;DHT22;39485;45.702;11.364;2023-06-14T01:14:39;17.60;99.90
53599;DHT22;39485;45.702;11.364;2023-06-14T01:17:05;17.60;99.90
53599;DHT22;39485;45.702;11.364;2023-06-14T01:19:33;17.50;99.90
53599;DHT22;39485;45.702;11.364;2023-06-14T01:22:01;17.50;99.90
53599;DHT22;39485;45.702;11.364;2023-06-14T01:24:26;17.50;99.90
53599;DHT22;39485;45.702;11.364;2023-06-14T01:26:55;17.50;99.90
53599;DHT22;39485;45.702;11.364;2023-06-14T01:29:25;17.40;99.90
53599;DHT22;39485;45.702;11.364;2023-06-14T01:31:53;17.40;99.90
53599;DHT22;39485;45.702;11.364;2023-06-14T01:34:20;17.40;99.90
53599;DHT22;39485;45.702;11.364;2023-06-14T01:36:46;17.40;99.90
53599;DHT22;39485;45.702;11.364;2023-06-14T01:39:14;17.30;99.90
53599;DHT22;39485;45.702;11.364;2023-06-14T01:41:41;17.30;99.90
53599;DHT22;39485;45.702;11.364;2023-06-14T01:44:08;17.30;99.90
53599;DHT22;39485;45.702;11.364;2023-06-14T01:46:35;17.30;99.90
53599;DHT22;39485;45.702;11.364;2023-06-14T01:49:01;17.30;99.90
53599;DHT22;39485;45.702;11.364;2023-06-14T01:51:27;17.30;99.90
53599;DHT22;39485;45.702;11.364;2023-06-14T01:53:53;17.30;99.90
53599;DHT22;39485;45.702;11.364;2023-06-14T01:56:19;17.30;99.90
53599;DHT22;39485;45.702;11.364;2023-06-14T01:58:45;17.30;99.90
53599;DHT22;39485;45.702;11.364;2023-06-14T02:01:11;17.40;99.90
53599;DHT22;39485;45.702;11.364;2023-06-14T02:03:38;17.30;99.90
53599;DHT22;39485;45.702;11.364;2023-06-14T02:06:04;17.40;99.90
53599;DHT22;39485;45.702;11.364;2023-06-14T02:08:30;17.40;99.90
53599;DHT22;39485;45.702;11.364;2023-06-14T02:10:55;17.40;99.90
53599;DHT22;39485;45.702;11.364;2023-06-14T02:13:21;17.40;99.90
53599;DHT22;39485;45.702;11.364;2023-06-14T02:15:47;17.40;99.90
53599;DHT22;39485;45.702;11.364;2023-06-14T02:18:16;17.40;99.90
53599;DHT22;39485;45.702;11.364;2023-06-14T02:20:42;17.40;99.90
53599;DHT22;39485;45.702;11.364;2023-06-14T02:23:07;17.40;99.90
53599;DHT22;39485;45.702;11.364;2023-06-14T02:25:33;17.40;99.90
53599;DHT22;39485;45.702;11.364;2023-06-14T02:27:59;17.40;99.90
53599;DHT22;39485;45.702;11.364;2023-06-14T02:30:24;17.30;99.90
53599;DHT22;39485;45.702;11.364;2023-06-14T02:32:50;17.30;99.90
53599;DHT22;39485;45.702;11.364;2023-06-14T02:35:16;17.30;99.90
53599;DHT22;39485;45.702;11.364;2023-06-14T02:37:42;17.30;99.90
53599;DHT22;39485;45.702;11.364;2023-06-14T02:40:08;17.30;99.90
53599;DHT22;39485;45.702;11.364;2023-06-14T02:42:34;17.30;99.90
53599;DHT22;39485;45.702;11.364;2023-06-14T02:45:00;17.30;99.90
53599;DHT22;39485;45.702;11.364;2023-06-14T02:47:27;17.30;99.90
53599;DHT22;39485;45.702;11.364;2023-06-14T02:49:53;17.30;99.90
53599;DHT22;39485;45.702;11.364;2023-06-14T02:52:18;17.30;99.90
53599;DHT22;39485;45.702;11.364;2023-06-14T02:54:44;17.30;99.90
53599;DHT22;39485;45.702;11.364;2023-06-14T02:57:10;17.30;99.90
53599;DHT22;39485;45.702;11.364;2023-06-14T02:59:36;17.30;99.90
53599;DHT22;39485;45.702;11.364;2023-06-14T03:02:02;17.30;99.90
53599;DHT22;39485;45.702;11.364;2023-06-14T03:04:28;17.30;99.90
53599;DHT22;39485;45.702;11.364;2023-06-14T03:06:54;17.20;99.90
53599;DHT22;39485;45.702;11.364;2023-06-14T03:09:20;17.20;99.90
53599;DHT22;39485;45.702;11.364;2023-06-14T03:11:46;17.20;99.90
53599;DHT22;39485;45.702;11.364;2023-06-14T03:14:13;17.20;99.90
53599;DHT22;39485;45.702;11.364;2023-06-14T03:16:39;17.20;99.90
53599;DHT22;39485;45.702;11.364;2023-06-14T03:19:05;17.30;99.90
53599;DHT22;39485;45.702;11.364;2023-06-14T03:21:31;17.30;99.90
53599;DHT22;39485;45.702;11.364;2023-06-14T03:23:57;17.20;99.90
53599;DHT22;39485;45.702;11.364;2023-06-14T03:26:23;17.30;99.90
53599;DHT22;39485;45.702;11.364;2023-06-14T03:28:50;17.20;99.90
53599;DHT22;39485;45.702;11.364;2023-06-14T03:31:16;17.30;99.90
53599;DHT22;39485;45.702;11.364;2023-06-14T03:33:41;17.20;99.90
53599;DHT22;39485;45.702;11.364;2023-06-14T03:36:07;17.20;99.90
53599;DHT22;39485;45.702;11.364;2023-06-14T03:38:33;17.20;99.90
53599;DHT22;39485;45.702;11.364;2023-06-14T03:40:59;17.20;99.90
53599;DHT22;39485;45.702;11.364;2023-06-14T03:43:25;17.20;99.90
53599;DHT22;39485;45.702;11.364;2023-06-14T03:45:51;17.20;99.90
53599;DHT22;39485;45.702;11.364;2023-06-14T03:48:16;17.20;99.90
53599;DHT22;39485;45.702;11.364;2023-06-14T03:50:42;17.20;99.90
53599;DHT22;39485;45.702;11.364;2023-06-14T03:53:08;17.20;99.90
53599;DHT22;39485;45.702;11.364;2023-06-14T03:55:34;17.20;99.90
53599;DHT22;39485;45.702;11.364;2023-06-14T03:58:00;17.10;99.90
53599;DHT22;39485;45.702;11.364;2023-06-14T04:00:26;17.10;99.90
53599;DHT22;39485;45.702;11.364;2023-06-14T04:02:52;17.10;99.90
53599;DHT22;39485;45.702;11.364;2023-06-14T04:05:19;17.10;99.90
53599;DHT22;39485;45.702;11.364;2023-06-14T04:07:46;17.10;99.90
53599;DHT22;39485;45.702;11.364;2023-06-14T04:10:15;17.10;99.90
53599;DHT22;39485;45.702;11.364;2023-06-14T04:12:41;17.10;99.90
53599;DHT22;39485;45.702;11.364;2023-06-14T04:15:07;17.00;99.90
53599;DHT22;39485;45.702;11.364;2023-06-14T04:17:34;17.00;99.90
53599;DHT22;39485;45.702;11.364;2023-06-14T04:20:02;17.00;99.90
53599;DHT22;39485;45.702;11.364;2023-06-14T04:22:30;17.00;99.90
53599;DHT22;39485;45.702;11.364;2023-06-14T04:24:56;17.00;99.90
53599;DHT22;39485;45.702;11.364;2023-06-14T04:27:23;17.00;99.90
53599;DHT22;39485;45.702;11.364;2023-06-14T04:29:54;17.00;99.90
53599;DHT22;39485;45.702;11.364;2023-06-14T04:32:27;17.10;99.90
53599;DHT22;39485;45.702;11.364;2023-06-14T04:34:55;17.10;99.90
53599;DHT22;39485;45.702;11.364;2023-06-14T04:37:24;17.10;99.90
53599;DHT22;39485;45.702;11.364;2023-06-14T04:39:51;17.10;99.90
53599;DHT22;39485;45.702;11.364;2023-06-14T04:42:17;17.10;99.90
53599;DHT22;39485;45.702;11.364;2023-06-14T04:44:46;17.20;99.90
53599;DHT22;39485;45.702;11.364;2023-06-14T04:47:13;17.20;99.90
53599;DHT22;39485;45.702;11.364;2023-06-14T04:49:39;17.20;99.90
53599;DHT22;39485;45.702;11.364;2023-06-14T04:52:06;17.30;99.90
53599;DHT22;39485;45.702;11.364;2023-06-14T04:54:33;17.30;99.90
53599;DHT22;39485;45.702;11.364;2023-06-14T04:57:00;17.40;99.90
53599;DHT22;39485;45.702;11.364;2023-06-14T04:59:25;17.40;99.90
53599;DHT22;39485;45.702;11.364;2023-06-14T05:01:51;17.40;99.90
53599;DHT22;39485;45.702;11.364;2023-06-14T05:04:19;17.50;99.90
53599;DHT22;39485;45.702;11.364;2023-06-14T05:06:45;17.50;99.90
53599;DHT22;39485;45.702;11.364;2023-06-14T05:09:14;17.50;99.90
53599;DHT22;39485;45.702;11.364;2023-06-14T05:11:40;17.60;99.90
53599;DHT22;39485;45.702;11.364;2023-06-14T05:14:12;17.60;99.90
53599;DHT22;39485;45.702;11.364;2023-06-14T05:16:38;17.70;99.90
53599;DHT22;39485;45.702;11.364;2023-06-14T05:19:04;17.70;99.90
53599;DHT22;39485;45.702;11.364;2023-06-14T05:21:30;17.80;99.90
53599;DHT22;39485;45.702;11.364;2023-06-14T05:23:57;17.80;99.90
53599;DHT22;39485;45.702;11.364;2023-06-14T05:26:23;17.90;99.90
53599;DHT22;39485;45.702;11.364;2023-06-14T05:28:50;17.90;99.90
53599;DHT22;39485;45.702;11.364;2023-06-14T05:31:18;18.00;99.90
53599;DHT22;39485;45.702;11.364;2023-06-14T05:33:43;18.10;99.90
53599;DHT22;39485;45.702;11.364;2023-06-14T05:36:09;18.20;99.90
53599;DHT22;39485;45.702;11.364;2023-06-14T05:38:35;18.30;99.90
53599;DHT22;39485;45.702;11.364;2023-06-14T05:41:01;18.40;99.90
53599;DHT22;39485;45.702;11.364;2023-06-14T05:43:26;18.40;99.90
53599;DHT22;39485;45.702;11.364;2023-06-14T05:45:52;18.50;99.90
53599;DHT22;39485;45.702;11.364;2023-06-14T05:48:17;18.60;99.90
53599;DHT22;39485;45.702;11.364;2023-06-14T05:50:43;18.70;99.90
53599;DHT22;39485;45.702;11.364;2023-06-14T05:53:09;18.80;99.90
53599;DHT22;39485;45.702;11.364;2023-06-14T05:55:35;18.90;99.90
53599;DHT22;39485;45.702;11.364;2023-06-14T05:58:01;18.90;99.90
53599;DHT22;39485;45.702;11.364;2023-06-14T06:00:27;19.00;99.90
53599;DHT22;39485;45.702;11.364;2023-06-14T06:02:53;19.00;99.90
53599;DHT22;39485;45.702;11.364;2023-06-14T06:05:18;19.20;99.90
53599;DHT22;39485;45.702;11.364;2023-06-14T06:07:44;19.20;99.90
53599;DHT22;39485;45.702;11.364;2023-06-14T06:10:10;19.30;99.90
53599;DHT22;39485;45.702;11.364;2023-06-14T06:12:36;19.40;99.90
53599;DHT22;39485;45.702;11.364;2023-06-14T06:15:02;19.40;99.90
53599;DHT22;39485;45.702;11.364;2023-06-14T06:17:28;19.50;99.90
53599;DHT22;39485;45.702;11.364;2023-06-14T06:19:54;19.60;99.90
53599;DHT22;39485;45.702;11.364;2023-06-14T06:22:20;19.70;99.90
53599;DHT22;39485;45.702;11.364;2023-06-14T06:24:45;19.70;99.90
53599;DHT22;39485;45.702;11.364;2023-06-14T06:27:11;19.80;99.90
53599;DHT22;39485;45.702;11.364;2023-06-14T06:29:38;19.80;99.90
53599;DHT22;39485;45.702;11.364;2023-06-14T06:32:04;19.80;99.90
53599;DHT22;39485;45.702;11.364;2023-06-14T06:34:30;19.90;99.90
53599;DHT22;39485;45.702;11.364;2023-06-14T06:36:55;19.90;99.90
53599;DHT22;39485;45.702;11.364;2023-06-14T06:39:21;19.90;99.90
53599;DHT22;39485;45.702;11.364;2023-06-14T06:41:47;19.90;99.90
53599;DHT22;39485;45.702;11.364;2023-06-14T06:44:12;20.00;99.90
53599;DHT22;39485;45.702;11.364;2023-06-14T06:46:38;20.00;99.90
53599;DHT22;39485;45.702;11.364;2023-06-14T06:49:08;20.10;99.90
53599;DHT22;39485;45.702;11.364;2023-06-14T06:51:40;20.10;99.90
53599;DHT22;39485;45.702;11.364;2023-06-14T06:54:07;20.20;99.90
53599;DHT22;39485;45.702;11.364;2023-06-14T06:56:34;20.20;99.90
53599;DHT22;39485;45.702;11.364;2023-06-14T06:58:59;20.30;99.90
53599;DHT22;39485;45.702;11.364;2023-06-14T07:01:25;20.30;99.90
53599;DHT22;39485;45.702;11.364;2023-06-14T07:03:51;20.30;99.90
53599;DHT22;39485;45.702;11.364;2023-06-14T07:06:17;20.30;99.90
53599;DHT22;39485;45.702;11.364;2023-06-14T07:08:44;20.30;99.90
53599;DHT22;39485;45.702;11.364;2023-06-14T07:11:10;20.30;99.90
53599;DHT22;39485;45.702;11.364;2023-06-14T07:13:35;20.30;99.90
53599;DHT22;39485;45.702;11.364;2023-06-14T07:16:01;20.30;99.90
53599;DHT22;39485;45.702;11.364;2023-06-14T07:18:28;20.30;99.90
53599;DHT22;39485;45.702;11.364;2023-06-14T07:20:54;20.30;99.90
53599;DHT22;39485;45.702;11.364;2023-06-14T07:23:20;20.30;99.90
53599;DHT22;39485;45.702;11.364;2023-06-14T15:07:35;25.70;81.00
53599;DHT22;39485;45.702;11.364;2023-06-14T15:10:01;25.70;81.70
53599;DHT22;39485;45.702;11.364;2023-06-14T15:12:27;25.70;81.40
53599;DHT22;39485;45.702;11.364;2023-06-14T15:14:53;25.70;81.30
53599;DHT22;39485;45.702;11.364;2023-06-14T15:17:20;25.70;81.30
53599;DHT22;39485;45.702;11.364;2023-06-14T15:19:46;25.70;80.70
53599;DHT22;39485;45.702;11.364;2023-06-14T15:22:13;25.60;79.80
53599;DHT22;39485;45.702;11.364;2023-06-14T15:24:40;25.50;79.20
53599;DHT22;39485;45.702;11.364;2023-06-14T15:27:06;25.50;79.40
53599;DHT22;39485;45.702;11.364;2023-06-14T15:29:32;25.50;79.10
53599;DHT22;39485;45.702;11.364;2023-06-14T15:31:58;25.50;78.90
53599;DHT22;39485;45.702;11.364;2023-06-14T15:34:23;25.50;79.30
53599;DHT22;39485;45.702;11.364;2023-06-14T15:36:49;25.50;79.70
53599;DHT22;39485;45.702;11.364;2023-06-14T15:39:15;25.60;79.50
53599;DHT22;39485;45.702;11.364;2023-06-14T15:41:41;25.60;78.90
53599;DHT22;39485;45.702;11.364;2023-06-14T15:44:07;25.60;79.00
53599;DHT22;39485;45.702;11.364;2023-06-14T15:46:33;25.60;79.50
53599;DHT22;39485;45.702;11.364;2023-06-14T15:48:59;25.60;79.10
53599;DHT22;39485;45.702;11.364;2023-06-14T15:51:24;25.60;78.40
53599;DHT22;39485;45.702;11.364;2023-06-14T15:53:50;25.60;78.10
53599;DHT22;39485;45.702;11.364;2023-06-14T15:56:17;25.60;78.10
53599;DHT22;39485;45.702;11.364;2023-06-14T15:58:43;25.60;77.20
53599;DHT22;39485;45.702;11.364;2023-06-14T16:01:08;25.60;77.20
53599;DHT22;39485;45.702;11.364;2023-06-14T16:03:34;25.50;77.50
53599;DHT22;39485;45.702;11.364;2023-06-14T16:06:00;25.50;77.70
53599;DHT22;39485;45.702;11.364;2023-06-14T16:08:25;25.50;77.80
53599;DHT22;39485;45.702;11.364;2023-06-14T16:10:51;25.50;78.00
53599;DHT22;39485;45.702;11.364;2023-06-14T16:13:17;25.40;78.00
53599;DHT22;39485;45.702;11.364;2023-06-14T16:15:42;25.50;78.60
53599;DHT22;39485;45.702;11.364;2023-06-14T16:18:08;25.40;78.10
53599;DHT22;39485;45.702;11.364;2023-06-14T16:20:33;25.40;78.20
53599;DHT22;39485;45.702;11.364;2023-06-14T16:22:59;25.40;78.80
53599;DHT22;39485;45.702;11.364;2023-06-14T16:25:25;25.50;78.00
53599;DHT22;39485;45.702;11.364;2023-06-14T16:27:50;25.40;77.50
53599;DHT22;39485;45.702;11.364;2023-06-14T16:30:16;25.40;77.50
53599;DHT22;39485;45.702;11.364;2023-06-14T16:32:42;25.40;77.50
53599;DHT22;39485;45.702;11.364;2023-06-14T16:35:08;25.40;77.20
53599;DHT22;39485;45.702;11.364;2023-06-14T16:37:34;25.30;77.20
53599;DHT22;39485;45.702;11.364;2023-06-14T16:40:00;25.20;77.40
53599;DHT22;39485;45.702;11.364;2023-06-14T16:42:26;25.20;77.60
53599;DHT22;39485;45.702;11.364;2023-06-14T16:44:52;25.10;77.70
53599;DHT22;39485;45.702;11.364;2023-06-14T16:47:17;25.10;78.20
53599;DHT22;39485;45.702;11.364;2023-06-14T16:49:43;25.00;78.40
53599;DHT22;39485;45.702;11.364;2023-06-14T16:52:08;25.10;78.80
53599;DHT22;39485;45.702;11.364;2023-06-14T16:54:34;25.00;78.50
53599;DHT22;39485;45.702;11.364;2023-06-14T16:57:00;25.00;78.90
53599;DHT22;39485;45.702;11.364;2023-06-14T16:59:31;25.00;78.70
53599;DHT22;39485;45.702;11.364;2023-06-14T17:02:01;25.10;78.40
53599;DHT22;39485;45.702;11.364;2023-06-14T17:04:28;25.00;78.20
53599;DHT22;39485;45.702;11.364;2023-06-14T17:06:54;25.00;78.40
53599;DHT22;39485;45.702;11.364;2023-06-14T17:09:19;25.00;79.10
53599;DHT22;39485;45.702;11.364;2023-06-14T17:11:45;24.90;78.70
53599;DHT22;39485;45.702;11.364;2023-06-14T17:14:11;24.90;78.80
53599;DHT22;39485;45.702;11.364;2023-06-14T17:16:38;24.90;78.90
53599;DHT22;39485;45.702;11.364;2023-06-14T17:19:04;24.90;79.10
53599;DHT22;39485;45.702;11.364;2023-06-14T17:21:33;24.80;78.90
53599;DHT22;39485;45.702;11.364;2023-06-14T17:23:59;24.80;79.20
53599;DHT22;39485;45.702;11.364;2023-06-14T17:26:25;24.80;79.40
53599;DHT22;39485;45.702;11.364;2023-06-14T17:28:53;24.80;79.50
53599;DHT22;39485;45.702;11.364;2023-06-14T17:31:19;24.80;79.90
53599;DHT22;39485;45.702;11.364;2023-06-14T17:33:45;24.80;80.30
53599;DHT22;39485;45.702;11.364;2023-06-14T17:36:10;24.80;80.30
53599;DHT22;39485;45.702;11.364;2023-06-14T17:38:36;24.70;80.50
53599;DHT22;39485;45.702;11.364;2023-06-14T17:41:03;24.70;80.40
53599;DHT22;39485;45.702;11.364;2023-06-14T17:43:37;24.60;80.50
53599;DHT22;39485;45.702;11.364;2023-06-14T17:46:02;24.60;81.10
53599;DHT22;39485;45.702;11.364;2023-06-14T17:48:28;24.60;81.40
53599;DHT22;39485;45.702;11.364;2023-06-14T17:51:05;24.60;82.10
53599;DHT22;39485;45.702;11.364;2023-06-14T17:53:32;24.50;82.30
53599;DHT22;39485;45.702;11.364;2023-06-14T17:55:57;24.50;84.10
53599;DHT22;39485;45.702;11.364;2023-06-14T17:58:23;24.50;86.70
53599;DHT22;39485;45.702;11.364;2023-06-14T18:00:50;24.50;88.60
53599;DHT22;39485;45.702;11.364;2023-06-14T18:03:16;24.40;90.00
53599;DHT22;39485;45.702;11.364;2023-06-14T18:05:42;24.40;90.60
53599;DHT22;39485;45.702;11.364;2023-06-14T18:08:09;24.30;90.60
53599;DHT22;39485;45.702;11.364;2023-06-14T18:10:35;24.20;91.00
53599;DHT22;39485;45.702;11.364;2023-06-14T18:13:01;24.10;91.30
53599;DHT22;39485;45.702;11.364;2023-06-14T18:15:27;24.00;91.70
53599;DHT22;39485;45.702;11.364;2023-06-14T18:17:53;24.00;92.60
53599;DHT22;39485;45.702;11.364;2023-06-14T18:20:23;23.80;92.80
53599;DHT22;39485;45.702;11.364;2023-06-14T18:22:49;23.70;92.80
53599;DHT22;39485;45.702;11.364;2023-06-14T18:25:16;23.60;93.20
53599;DHT22;39485;45.702;11.364;2023-06-14T18:27:44;23.50;93.40
53599;DHT22;39485;45.702;11.364;2023-06-14T18:30:11;23.40;94.00
53599;DHT22;39485;45.702;11.364;2023-06-14T18:32:36;23.40;94.60
53599;DHT22;39485;45.702;11.364;2023-06-14T18:35:02;23.30;95.00
53599;DHT22;39485;45.702;11.364;2023-06-14T18:37:28;23.20;95.70
53599;DHT22;39485;45.702;11.364;2023-06-14T18:39:54;23.20;96.00
53599;DHT22;39485;45.702;11.364;2023-06-14T18:42:20;23.10;96.70
53599;DHT22;39485;45.702;11.364;2023-06-14T18:44:49;23.10;97.30
53599;DHT22;39485;45.702;11.364;2023-06-14T18:47:15;23.00;98.00
53599;DHT22;39485;45.702;11.364;2023-06-14T18:49:41;22.90;98.50
53599;DHT22;39485;45.702;11.364;2023-06-14T18:52:08;22.90;99.20
53599;DHT22;39485;45.702;11.364;2023-06-14T18:54:34;22.80;99.90
53599;DHT22;39485;45.702;11.364;2023-06-14T18:57:00;22.80;99.90
53599;DHT22;39485;45.702;11.364;2023-06-14T18:59:25;22.70;99.90
53599;DHT22;39485;45.702;11.364;2023-06-14T19:01:51;22.70;99.90
53599;DHT22;39485;45.702;11.364;2023-06-14T19:04:17;22.60;99.90
53599;DHT22;39485;45.702;11.364;2023-06-14T19:06:43;22.60;99.90
53599;DHT22;39485;45.702;11.364;2023-06-14T19:09:08;22.50;99.90
53599;DHT22;39485;45.702;11.364;2023-06-14T19:11:34;22.40;99.90
53599;DHT22;39485;45.702;11.364;2023-06-14T19:14:00;22.40;99.90
53599;DHT22;39485;45.702;11.364;2023-06-14T19:16:26;22.30;99.90
53599;DHT22;39485;45.702;11.364;2023-06-14T19:18:51;22.20;99.90
53599;DHT22;39485;45.702;11.364;2023-06-14T19:21:17;22.10;99.90
53599;DHT22;39485;45.702;11.364;2023-06-14T19:23:43;22.00;99.90
53599;DHT22;39485;45.702;11.364;2023-06-14T19:26:09;22.00;99.90
53599;DHT22;39485;45.702;11.364;2023-06-14T19:28:35;21.90;99.90
53599;DHT22;39485;45.702;11.364;2023-06-14T19:31:01;21.90;99.90
53599;DHT22;39485;45.702;11.364;2023-06-14T19:33:27;21.90;99.90
53599;DHT22;39485;45.702;11.364;2023-06-14T19:35:53;21.80;99.90
53599;DHT22;39485;45.702;11.364;2023-06-14T19:38:18;21.80;99.90
53599;DHT22;39485;45.702;11.364;2023-06-14T19:40:44;21.70;99.90
53599;DHT22;39485;45.702;11.364;2023-06-14T19:43:11;21.70;99.90
53599;DHT22;39485;45.702;11.364;2023-06-14T19:45:37;21.60;99.90
53599;DHT22;39485;45.702;11.364;2023-06-14T19:48:03;21.60;99.90
53599;DHT22;39485;45.702;11.364;2023-06-14T19:50:29;21.60;99.90
53599;DHT22;39485;45.702;11.364;2023-06-14T19:52:54;21.60;99.90
53599;DHT22;39485;45.702;11.364;2023-06-14T19:55:20;21.60;99.90
53599;DHT22;39485;45.702;11.364;2023-06-14T19:57:46;21.60;99.90
53599;DHT22;39485;45.702;11.364;2023-06-14T20:00:12;21.60;99.90
53599;DHT22;39485;45.702;11.364;2023-06-14T20:02:38;21.60;99.90
53599;DHT22;39485;45.702;11.364;2023-06-14T20:05:04;21.60;99.90
53599;DHT22;39485;45.702;11.364;2023-06-14T20:07:30;21.60;99.90
53599;DHT22;39485;45.702;11.364;2023-06-14T20:09:57;21.60;99.90
53599;DHT22;39485;45.702;11.364;2023-06-14T20:12:23;21.60;99.90
53599;DHT22;39485;45.702;11.364;2023-06-14T20:14:49;21.60;99.90
53599;DHT22;39485;45.702;11.364;2023-06-14T20:17:15;21.50;99.90
53599;DHT22;39485;45.702;11.364;2023-06-14T20:19:41;21.40;99.90
53599;DHT22;39485;45.702;11.364;2023-06-14T20:22:07;21.30;99.90
53599;DHT22;39485;45.702;11.364;2023-06-14T20:24:32;21.20;99.90
53599;DHT22;39485;45.702;11.364;2023-06-14T20:26:58;21.00;99.90
53599;DHT22;39485;45.702;11.364;2023-06-14T20:29:24;20.80;99.90
53599;DHT22;39485;45.702;11.364;2023-06-14T20:31:49;20.60;99.90
53599;DHT22;39485;45.702;11.364;2023-06-14T20:34:16;20.50;99.90
53599;DHT22;39485;45.702;11.364;2023-06-14T20:36:42;20.30;99.90
53599;DHT22;39485;45.702;11.364;2023-06-14T20:39:07;20.20;99.90
53599;DHT22;39485;45.702;11.364;2023-06-14T20:41:33;20.00;99.90
53599;DHT22;39485;45.702;11.364;2023-06-14T20:44:00;19.90;99.90
53599;DHT22;39485;45.702;11.364;2023-06-14T20:46:27;19.70;99.90
53599;DHT22;39485;45.702;11.364;2023-06-14T20:48:56;19.50;99.90
53599;DHT22;39485;45.702;11.364;2023-06-14T20:51:22;19.20;99.90
53599;DHT22;39485;45.702;11.364;2023-06-14T20:53:48;19.00;99.90
53599;DHT22;39485;45.702;11.364;2023-06-14T20:56:14;18.90;99.90
53599;DHT22;39485;45.702;11.364;2023-06-14T20:58:40;18.80;99.90
53599;DHT22;39485;45.702;11.364;2023-06-14T21:01:06;18.60;99.90
53599;DHT22;39485;45.702;11.364;2023-06-14T21:03:31;18.50;99.90
53599;DHT22;39485;45.702;11.364;2023-06-14T21:05:57;18.40;99.90
53599;DHT22;39485;45.702;11.364;2023-06-14T21:08:25;18.30;99.90
53599;DHT22;39485;45.702;11.364;2023-06-14T21:10:51;18.20;99.90
53599;DHT22;39485;45.702;11.364;2023-06-14T21:13:16;18.20;99.90
53599;DHT22;39485;45.702;11.364;2023-06-14T21:15:42;18.10;99.90
53599;DHT22;39485;45.702;11.364;2023-06-14T21:18:08;18.10;99.90
53599;DHT22;39485;45.702;11.364;2023-06-14T21:20:36;18.10;99.90
53599;DHT22;39485;45.702;11.364;2023-06-14T21:23:01;18.10;99.90
53599;DHT22;39485;45.702;11.364;2023-06-14T21:25:27;18.10;99.90
53599;DHT22;39485;45.702;11.364;2023-06-14T21:27:53;18.10;99.90
53599;DHT22;39485;45.702;11.364;2023-06-14T21:30:34;18.10;99.90
53599;DHT22;39485;45.702;11.364;2023-06-14T21:33:01;18.10;99.90
53599;DHT22;39485;45.702;11.364;2023-06-14T21:35:29;18.10;99.90
53599;DHT22;39485;45.702;11.364;2023-06-14T21:37:54;18.00;99.90
53599;DHT22;39485;45.702;11.364;2023-06-14T21:40:20;18.00;99.90
53599;DHT22;39485;45.702;11.364;2023-06-14T21:42:46;18.00;99.90
53599;DHT22;39485;45.702;11.364;2023-06-14T21:45:12;18.00;99.90
53599;DHT22;39485;45.702;11.364;2023-06-14T21:47:38;18.00;99.90
53599;DHT22;39485;45.702;11.364;2023-06-14T21:50:04;18.00;99.90
53599;DHT22;39485;45.702;11.364;2023-06-14T21:52:30;18.00;99.90
53599;DHT22;39485;45.702;11.364;2023-06-14T21:54:57;18.00;99.90
53599;DHT22;39485;45.702;11.364;2023-06-14T21:57:23;18.00;99.90
53599;DHT22;39485;45.702;11.364;2023-06-14T21:59:49;18.00;99.90
53599;DHT22;39485;45.702;11.364;2023-06-14T22:02:14;18.00;99.90
53599;DHT22;39485;45.702;11.364;2023-06-14T22:04:42;18.00;99.90
53599;DHT22;39485;45.702;11.364;2023-06-14T22:07:08;17.90;99.90
53599;DHT22;39485;45.702;11.364;2023-06-14T22:09:37;17.90;99.90
53599;DHT22;39485;45.702;11.364;2023-06-14T22:12:03;17.90;99.90
53599;DHT22;39485;45.702;11.364;2023-06-14T22:14:29;17.90;99.90
53599;DHT22;39485;45.702;11.364;2023-06-14T22:16:56;17.90;99.90
53599;DHT22;39485;45.702;11.364;2023-06-14T22:19:25;17.90;99.90
53599;DHT22;39485;45.702;11.364;2023-06-14T22:21:52;18.00;99.90
53599;DHT22;39485;45.702;11.364;2023-06-14T22:24:18;18.00;99.90
53599;DHT22;39485;45.702;11.364;2023-06-14T22:26:44;18.00;99.90
53599;DHT22;39485;45.702;11.364;2023-06-14T22:29:16;18.00;99.90
53599;DHT22;39485;45.702;11.364;2023-06-14T22:31:51;18.00;99.90
53599;DHT22;39485;45.702;11.364;2023-06-14T22:34:20;18.00;99.90
53599;DHT22;39485;45.702;11.364;2023-06-14T22:36:46;18.00;99.90
53599;DHT22;39485;45.702;11.364;2023-06-14T22:39:13;18.00;99.90
53599;DHT22;39485;45.702;11.364;2023-06-14T22:41:40;18.00;99.90
53599;DHT22;39485;45.702;11.364;2023-06-14T22:44:06;18.00;99.90
53599;DHT22;39485;45.702;11.364;2023-06-14T22:46:32;17.90;99.90
53599;DHT22;39485;45.702;11.364;2023-06-14T22:48:58;17.90;99.90
53599;DHT22;39485;45.702;11.364;2023-06-14T22:51:25;17.90;99.90
53599;DHT22;39485;45.702;11.364;2023-06-14T22:53:51;17.80;99.90